createdAt,value
2019-05-09T00:00:24.429Z,1.50
2019-05-09T00:02:54.103Z,1.45
2019-05-09T00:05:23.301Z,1.40
2019-05-09T00:07:53.193Z,1.55
2019-05-09T00:10:36.742Z,1.85
2019-05-09T00:12:50.936Z,1.52
2019-05-09T00:15:18.881Z,1.50
2019-05-09T00:17:46.583Z,1.80
2019-05-09T00:20:23.866Z,1.45
2019-05-09T00:22:53.941Z,1.65
2019-05-09T00:25:23.637Z,1.80
2019-05-09T00:27:53.609Z,1.55
2019-05-09T00:30:40.523Z,1.50
2019-05-09T00:33:09.818Z,1.65
2019-05-09T00:35:39.439Z,1.42
2019-05-09T00:38:08.358Z,1.70
2019-05-09T00:40:36.104Z,1.50
2019-05-09T00:43:04.085Z,1.60
2019-05-09T00:45:51.686Z,1.60
2019-05-09T00:48:23.969Z,1.72
2019-05-09T00:50:54.431Z,1.80
2019-05-09T00:53:23.231Z,1.40
2019-05-09T00:55:52.955Z,1.50
2019-05-09T00:58:20.721Z,1.50
2019-05-09T01:00:53.304Z,1.67
2019-05-09T01:03:23.331Z,1.60
2019-05-09T01:05:50.645Z,1.42
2019-05-09T01:08:18.523Z,1.75
2019-05-09T01:10:46.205Z,1.70
2019-05-09T01:13:14.290Z,1.45
2019-05-09T01:15:44.044Z,2.00
2019-05-09T01:18:13.227Z,1.35
2019-05-09T01:20:41.205Z,1.90
2019-05-09T01:23:08.946Z,1.47
2019-05-09T01:25:36.613Z,1.47
2019-05-09T01:28:04.388Z,1.50
2019-05-09T01:30:33.606Z,1.50
2019-05-09T01:33:17.150Z,1.57
2019-05-09T01:35:46.440Z,1.47
2019-05-09T01:38:14.427Z,1.10
2019-05-09T01:40:43.859Z,1.60
2019-05-09T01:43:13.845Z,1.52
2019-05-09T01:45:43.194Z,1.40
2019-05-09T01:48:10.981Z,1.60
2019-05-09T01:50:38.761Z,1.30
2019-05-09T01:53:06.507Z,1.30
2019-05-09T01:55:53.955Z,1.50
2019-05-09T01:58:23.493Z,1.55
2019-05-09T02:00:54.052Z,1.20
2019-05-09T02:03:23.366Z,1.20
2019-05-09T02:05:53.146Z,1.57
2019-05-09T02:08:20.806Z,1.60
2019-05-09T02:10:48.678Z,1.30
2019-05-09T02:13:16.554Z,1.22
2019-05-09T02:16:09.429Z,1.47
2019-05-09T02:18:44.159Z,1.27
2019-05-09T02:21:14.525Z,1.40
2019-05-09T02:23:43.215Z,1.50
2019-05-09T02:26:13.372Z,1.55
2019-05-09T02:28:42.616Z,1.35
2019-05-09T02:31:10.497Z,1.47
2019-05-09T02:33:38.233Z,1.40
2019-05-09T02:36:09.484Z,1.50
2019-05-09T02:38:35.573Z,1.67
2019-05-09T02:41:03.351Z,1.67
2019-05-09T02:43:31.121Z,1.35
2019-05-09T02:46:09.725Z,1.62
2019-05-09T02:48:39.342Z,1.60
2019-05-09T02:51:09.299Z,1.30
2019-05-09T02:53:39.499Z,1.55
2019-05-09T02:56:08.948Z,1.65
2019-05-09T02:58:48.323Z,1.65
2019-05-09T03:01:29.557Z,1.40
2019-05-09T03:03:59.081Z,1.70
2019-05-09T03:06:28.392Z,2.00
2019-05-09T03:08:59.137Z,1.55
2019-05-09T03:11:28.902Z,1.55
2019-05-09T03:13:58.326Z,1.40
2019-05-09T03:16:25.331Z,1.67
2019-05-09T03:18:53.120Z,1.40
2019-05-09T03:21:29.385Z,1.85
2019-05-09T03:23:59.191Z,1.40
2019-05-09T03:26:31.193Z,1.62
2019-05-09T03:29:08.787Z,1.70
2019-05-09T03:31:39.510Z,1.40
2019-05-09T03:34:09.450Z,1.55
2019-05-09T03:36:38.555Z,1.60
2019-05-09T03:39:08.197Z,1.55
2019-05-09T03:41:36.249Z,1.82
2019-05-09T03:44:04.101Z,1.60
2019-05-09T03:46:51.344Z,1.60
2019-05-09T03:49:21.354Z,2.00
2019-05-09T03:51:50.590Z,1.60
2019-05-09T03:54:18.511Z,1.70
2019-05-09T03:56:50.840Z,1.90
2019-05-09T03:59:20.214Z,1.80
2019-05-09T04:01:50.339Z,1.50
2019-05-09T04:04:19.501Z,1.57
2019-05-09T04:06:48.025Z,1.50
2019-05-09T04:09:17.968Z,1.52
2019-05-09T04:11:45.642Z,1.65
2019-05-09T04:14:20.965Z,1.80
2019-05-09T04:16:48.799Z,1.67
2019-05-09T04:19:17.498Z,1.90
2019-05-09T04:21:45.486Z,1.90
2019-05-09T04:24:13.217Z,1.80
2019-05-09T04:26:48.394Z,1.75
2019-05-09T04:29:18.461Z,1.47
2019-05-09T04:31:48.189Z,1.47
2019-05-09T04:34:18.115Z,1.67
2019-05-09T04:36:45.619Z,1.70
2019-05-09T04:39:18.958Z,1.60
2019-05-09T04:41:43.282Z,1.60
2019-05-09T04:44:19.237Z,1.67
2019-05-09T04:46:48.028Z,1.80
2019-05-09T04:49:16.059Z,1.60
2019-05-09T04:51:43.856Z,1.80
2019-05-09T04:54:11.598Z,1.60
2019-05-09T04:56:40.636Z,1.70
2019-05-09T04:59:09.806Z,1.42
2019-05-09T05:01:59.751Z,1.70
2019-05-09T05:04:29.147Z,1.50
2019-05-09T05:06:58.560Z,2.27
2019-05-09T05:09:27.763Z,1.87
2019-05-09T05:11:58.041Z,1.62
2019-05-09T05:14:28.086Z,1.80
2019-05-09T05:17:06.286Z,1.57
2019-05-09T05:19:30.963Z,1.60
2019-05-09T05:22:01.180Z,1.60
2019-05-09T05:24:44.853Z,1.70
2019-05-09T05:27:14.143Z,1.42
2019-05-09T05:29:41.898Z,1.70
2019-05-09T05:32:14.572Z,1.80
2019-05-09T05:35:04.694Z,1.60
2019-05-09T05:37:33.962Z,1.60
2019-05-09T05:40:01.807Z,1.50
2019-05-09T05:42:30.334Z,1.95
2019-05-09T05:44:58.417Z,1.67
2019-05-09T05:47:37.931Z,1.60
2019-05-09T05:50:08.418Z,1.90
2019-05-09T05:52:37.556Z,1.50
2019-05-09T05:55:07.426Z,1.45
2019-05-09T05:57:35.405Z,1.80
2019-05-09T06:00:03.287Z,1.87
2019-05-09T06:02:32.149Z,1.42
2019-05-09T06:04:59.850Z,1.62
2019-05-09T06:07:28.503Z,1.55
2019-05-09T06:09:57.568Z,1.72
2019-05-09T06:12:27.555Z,1.98
2019-05-09T06:14:55.187Z,1.70
2019-05-09T06:17:22.977Z,1.70
2019-05-09T06:19:50.641Z,1.40
2019-05-09T06:22:18.506Z,1.80
2019-05-09T06:24:47.829Z,1.42
2019-05-09T06:27:18.089Z,1.77
2019-05-09T06:29:47.561Z,1.50
2019-05-09T06:32:14.909Z,1.70
2019-05-09T06:34:42.683Z,1.70
2019-05-09T06:37:10.451Z,1.82
2019-05-09T06:39:38.341Z,1.62
2019-05-09T06:42:08.586Z,1.82
2019-05-09T06:44:43.210Z,1.40
2019-05-09T06:47:22.975Z,1.60
2019-05-09T06:49:54.025Z,1.45
2019-05-09T06:52:23.371Z,1.65
2019-05-09T06:54:51.138Z,1.40
2019-05-09T06:57:18.950Z,1.70
2019-05-09T06:59:48.646Z,1.72
2019-05-09T07:02:34.342Z,1.87
2019-05-09T07:05:11.738Z,1.40
2019-05-09T07:07:45.646Z,1.60
2019-05-09T07:10:14.901Z,1.70
2019-05-09T07:12:42.654Z,1.50
2019-05-09T07:15:12.257Z,1.40
2019-05-09T07:17:40.849Z,1.35
2019-05-09T07:20:08.798Z,1.70
2019-05-09T07:22:58.265Z,1.60
2019-05-09T07:25:30.628Z,1.30
2019-05-09T07:27:59.976Z,1.27
2019-05-09T07:31:07.722Z,1.50
2019-05-09T07:33:59.329Z,1.27
2019-05-09T07:36:29.169Z,1.35
2019-05-09T07:38:58.259Z,1.50
2019-05-09T07:41:28.234Z,1.50
2019-05-09T07:43:58.218Z,1.50
2019-05-09T07:46:33.023Z,1.47
2019-05-09T07:49:03.024Z,1.30
2019-05-09T07:51:30.846Z,2.10
2019-05-09T07:53:59.119Z,1.70
2019-05-09T07:56:28.439Z,1.70
2019-05-09T07:58:58.490Z,1.50
2019-05-09T08:01:28.042Z,1.60
2019-05-09T08:03:58.159Z,1.67
2019-05-09T08:06:25.262Z,1.40
2019-05-09T08:08:53.037Z,1.50
2019-05-09T08:11:20.705Z,1.67
2019-05-09T08:13:48.778Z,1.77
2019-05-09T08:16:18.623Z,1.20
2019-05-09T08:18:48.292Z,1.55
2019-05-09T08:21:18.070Z,1.80
2019-05-09T08:23:45.622Z,1.30
2019-05-09T08:26:13.377Z,1.62
2019-05-09T08:28:41.042Z,1.80
2019-05-09T08:31:08.807Z,1.70
2019-05-09T08:33:38.053Z,1.55
2019-05-09T08:36:08.770Z,1.50
2019-05-09T08:38:38.521Z,1.50
2019-05-09T08:41:13.293Z,1.22
2019-05-09T08:43:41.901Z,1.42
2019-05-09T08:46:10.778Z,1.40
2019-05-09T08:48:38.546Z,1.20
2019-05-09T08:51:47.246Z,1.65
2019-05-09T08:54:09.295Z,1.55
2019-05-09T08:56:38.857Z,1.25
2019-05-09T08:59:08.235Z,1.42
2019-05-09T09:01:54.217Z,1.40
2019-05-09T09:04:07.939Z,1.20
2019-05-09T09:06:37.357Z,1.17
2019-05-09T09:09:05.289Z,1.25
2019-05-09T09:11:33.067Z,1.37
2019-05-09T09:14:00.766Z,1.40
2019-05-09T09:16:28.567Z,1.00
2019-05-09T09:18:58.423Z,1.30
2019-05-09T09:21:28.407Z,1.10
2019-05-09T09:23:55.382Z,1.20
2019-05-09T09:26:23.142Z,1.07
2019-05-09T09:28:50.815Z,1.20
2019-05-09T09:31:18.541Z,1.10
2019-05-09T09:33:48.006Z,1.40
2019-05-09T09:36:17.830Z,1.10
2019-05-09T09:38:47.753Z,1.30
2019-05-09T09:41:15.073Z,1.02
2019-05-09T09:43:42.899Z,1.17
2019-05-09T09:46:14.680Z,1.10
2019-05-09T09:48:40.435Z,1.27
2019-05-09T09:51:08.351Z,1.20
2019-05-09T09:53:38.256Z,1.20
2019-05-09T09:56:05.741Z,1.10
2019-05-09T09:58:33.615Z,1.15
2019-05-09T10:01:28.743Z,1.25
2019-05-09T10:04:19.395Z,1.27
2019-05-09T10:06:42.408Z,1.15
2019-05-09T10:09:10.705Z,1.30
2019-05-09T10:11:38.411Z,1.20
2019-05-09T10:14:07.990Z,1.10
2019-05-09T10:16:57.954Z,1.10
2019-05-09T10:19:31.803Z,1.10
2019-05-09T10:22:02.038Z,1.25
2019-05-09T10:24:31.429Z,1.20
2019-05-09T10:27:04.905Z,1.22
2019-05-09T10:29:34.310Z,1.20
2019-05-09T10:32:02.120Z,1.30
2019-05-09T10:34:30.469Z,1.15
2019-05-09T10:36:58.382Z,1.12
2019-05-09T10:39:27.648Z,1.15
2019-05-09T10:41:57.673Z,1.10
2019-05-09T10:44:31.887Z,1.10
2019-05-09T10:47:12.371Z,1.00
2019-05-09T10:49:41.717Z,1.32
2019-05-09T10:52:09.408Z,1.20
2019-05-09T10:54:37.201Z,1.00
2019-05-09T10:57:05.261Z,1.10
2019-05-09T10:59:33.176Z,1.20
2019-05-09T11:02:00.865Z,1.10
2019-05-09T11:04:28.865Z,1.10
2019-05-09T11:06:58.283Z,1.00
2019-05-09T11:09:29.005Z,0.90
2019-05-09T11:11:58.727Z,1.20
2019-05-09T11:14:35.999Z,0.95
2019-05-09T11:17:07.990Z,1.00
2019-05-09T11:19:24.858Z,0.90
2019-05-09T11:21:52.659Z,1.10
2019-05-09T11:24:20.546Z,1.02
2019-05-09T11:26:48.443Z,1.37
2019-05-09T11:29:18.595Z,1.15
2019-05-09T11:32:27.601Z,0.90
2019-05-09T11:35:25.356Z,1.32
2019-05-09T11:37:58.684Z,1.00
2019-05-09T11:40:28.146Z,0.95
2019-05-09T11:42:55.956Z,1.30
2019-05-09T11:45:23.786Z,1.25
2019-05-09T11:47:51.495Z,1.20
2019-05-09T11:50:23.029Z,1.27
2019-05-09T11:52:49.199Z,1.00
2019-05-09T11:55:29.611Z,1.20
2019-05-09T11:57:48.599Z,1.10
2019-05-09T12:00:17.953Z,1.10
2019-05-09T12:02:46.213Z,1.10
2019-05-09T12:05:13.918Z,1.15
2019-05-09T12:07:41.820Z,1.10
2019-05-09T12:10:09.845Z,1.10
2019-05-09T12:12:41.137Z,1.00
2019-05-09T12:15:11.742Z,1.10
2019-05-09T12:17:56.481Z,1.47
2019-05-09T12:20:13.587Z,1.30
2019-05-09T12:22:42.886Z,1.25
2019-05-09T12:25:10.751Z,1.35
2019-05-09T12:27:38.628Z,1.45
2019-05-09T12:30:07.620Z,1.60
2019-05-09T12:32:38.357Z,1.20
2019-05-09T12:35:08.678Z,1.20
2019-05-09T12:37:37.685Z,1.30
2019-05-09T12:40:07.700Z,1.40
2019-05-09T12:42:35.693Z,1.20
2019-05-09T12:45:04.219Z,1.50
2019-05-09T12:47:32.609Z,1.20
2019-05-09T12:50:02.823Z,1.50
2019-05-09T12:52:30.734Z,1.10
2019-05-09T12:54:58.530Z,1.30
2019-05-09T12:57:28.861Z,1.30
2019-05-09T12:59:58.508Z,1.22
2019-05-09T13:02:27.868Z,1.00
2019-05-09T13:04:55.429Z,1.42
2019-05-09T13:07:23.369Z,1.45
2019-05-09T13:09:52.586Z,1.20
2019-05-09T13:12:20.796Z,1.12
2019-05-09T13:14:48.743Z,1.20
2019-05-09T13:17:44.917Z,1.65
2019-05-09T13:20:17.931Z,1.25
2019-05-09T13:22:47.725Z,1.30
2019-05-09T13:25:15.522Z,1.42
2019-05-09T13:27:43.288Z,1.30
2019-05-09T13:30:11.225Z,1.60
2019-05-09T13:32:39.207Z,1.35
2019-05-09T13:35:07.078Z,1.30
2019-05-09T13:37:37.976Z,1.32
2019-05-09T13:40:05.146Z,1.50
2019-05-09T13:42:33.215Z,1.72
2019-05-09T13:45:01.053Z,1.30
2019-05-09T13:47:29.842Z,1.60
2019-05-09T13:49:59.114Z,1.35
2019-05-09T13:52:27.484Z,1.40
2019-05-09T13:54:55.439Z,1.17
2019-05-09T13:57:23.220Z,1.52
2019-05-09T13:59:51.127Z,1.55
2019-05-09T14:02:19.083Z,1.50
2019-05-09T14:04:48.602Z,1.50
2019-05-09T14:07:19.044Z,1.90
2019-05-09T14:09:48.401Z,1.70
2019-05-09T14:12:17.592Z,1.20
2019-05-09T14:14:45.644Z,1.10
2019-05-09T14:17:14.018Z,1.12
2019-05-09T14:19:46.405Z,1.20
2019-05-09T14:22:12.103Z,1.20
2019-05-09T14:24:39.853Z,1.00
2019-05-09T14:27:08.251Z,1.30
2019-05-09T14:29:38.132Z,0.90
2019-05-09T14:32:05.972Z,1.00
2019-05-09T14:34:33.850Z,1.10
2019-05-09T14:37:01.661Z,1.00
2019-05-09T14:39:29.486Z,1.00
2019-05-09T14:41:57.869Z,1.10
2019-05-09T14:44:27.718Z,1.20
2019-05-09T14:46:55.470Z,1.65
2019-05-09T14:49:23.301Z,1.00
2019-05-09T14:51:53.869Z,0.93
2019-05-09T14:54:21.575Z,0.90
2019-05-09T14:56:49.414Z,1.02
2019-05-09T14:59:18.674Z,0.93
2019-05-09T15:01:49.303Z,1.00
2019-05-09T15:04:18.713Z,1.10
2019-05-09T15:06:48.636Z,1.05
2019-05-09T15:09:18.069Z,1.10
2019-05-09T15:11:48.136Z,1.00
2019-05-09T15:14:15.107Z,1.00
2019-05-09T15:16:42.793Z,1.25
2019-05-09T15:19:10.705Z,1.10
2019-05-09T15:21:38.624Z,1.00
2019-05-09T15:24:08.897Z,1.10
2019-05-09T15:26:37.355Z,1.30
2019-05-09T15:29:07.752Z,1.00
2019-05-09T15:31:35.511Z,1.17
2019-05-09T15:34:03.278Z,1.07
2019-05-09T15:36:31.059Z,1.10
2019-05-09T15:38:59.295Z,1.47
2019-05-09T15:41:27.765Z,1.30
2019-05-09T15:43:57.849Z,1.05
2019-05-09T15:46:31.066Z,1.10
2019-05-09T15:49:00.915Z,1.10
2019-05-09T15:51:32.020Z,1.25
2019-05-09T15:53:58.253Z,1.22
2019-05-09T15:56:28.667Z,1.15
2019-05-09T15:58:57.859Z,1.20
2019-05-09T16:01:27.707Z,0.88
2019-05-09T16:03:55.046Z,1.02
2019-05-09T16:06:22.974Z,1.10
2019-05-09T16:08:50.845Z,1.05
2019-05-09T16:11:18.649Z,1.00
2019-05-09T16:13:48.066Z,1.10
2019-05-09T16:16:17.632Z,1.00
2019-05-09T16:18:48.330Z,0.90
2019-05-09T16:21:15.497Z,1.05
2019-05-09T16:23:43.383Z,1.10
2019-05-09T16:26:11.063Z,1.10
2019-05-09T16:28:39.141Z,1.10
2019-05-09T16:31:06.947Z,0.90
2019-05-09T16:33:34.776Z,1.00
2019-05-09T16:36:02.657Z,1.10
2019-05-09T16:38:42.069Z,1.10
2019-05-09T16:41:00.300Z,1.00
2019-05-09T16:43:28.130Z,1.00
2019-05-09T16:45:58.116Z,1.10
2019-05-09T16:48:27.655Z,1.15
2019-05-09T16:51:03.195Z,1.00
2019-05-09T16:53:25.086Z,1.10
2019-05-09T16:55:52.915Z,1.10
2019-05-09T16:58:20.757Z,1.10
2019-05-09T17:00:50.850Z,1.00
2019-05-09T17:03:19.447Z,1.12
2019-05-09T17:05:47.430Z,1.40
2019-05-09T17:08:17.578Z,1.20
2019-05-09T17:10:45.049Z,1.17
2019-05-09T17:13:12.767Z,1.10
2019-05-09T17:15:40.921Z,1.30
2019-05-09T17:18:10.009Z,1.20
2019-05-09T17:20:58.755Z,1.30
2019-05-09T17:23:29.621Z,1.35
2019-05-09T17:25:58.001Z,1.00
2019-05-09T17:28:28.295Z,1.27
2019-05-09T17:30:57.876Z,1.20
2019-05-09T17:33:25.449Z,1.00
2019-05-09T17:35:53.331Z,1.20
2019-05-09T17:38:21.125Z,1.30
2019-05-09T17:40:48.839Z,1.30
2019-05-09T17:43:18.312Z,1.22
2019-05-09T17:45:47.857Z,1.47
2019-05-09T17:48:18.374Z,1.12
2019-05-09T17:50:45.735Z,1.17
2019-05-09T17:53:13.571Z,1.50
2019-05-09T17:55:41.331Z,1.47
2019-05-09T17:58:09.137Z,1.40
2019-05-09T18:00:37.976Z,1.40
2019-05-09T18:03:07.934Z,1.75
2019-05-09T18:05:38.283Z,1.70
2019-05-09T18:08:07.878Z,2.22
2019-05-09T18:10:37.772Z,1.70
2019-05-09T18:13:04.945Z,1.75
2019-05-09T18:15:32.916Z,2.10
2019-05-09T18:18:00.890Z,2.27
2019-05-09T18:20:28.621Z,2.20
2019-05-09T18:22:58.591Z,1.82
2019-05-09T18:25:26.243Z,1.60
2019-05-09T18:27:54.393Z,1.50
2019-05-09T18:30:22.435Z,1.50
2019-05-09T18:32:57.885Z,1.40
2019-05-09T18:35:28.184Z,1.75
2019-05-09T18:37:58.846Z,1.75
2019-05-09T18:40:28.181Z,1.62
2019-05-09T18:42:58.217Z,1.57
2019-05-09T18:45:28.058Z,1.70
2019-05-09T18:47:57.929Z,1.70
2019-05-09T18:50:25.649Z,1.55
2019-05-09T18:52:53.630Z,1.65
2019-05-09T18:55:21.475Z,1.50
2019-05-09T18:57:49.190Z,2.00
2019-05-09T19:00:17.858Z,3.25
2019-05-09T19:02:46.606Z,4.30
2019-05-09T19:05:16.004Z,4.75
2019-05-09T19:07:47.395Z,4.40
2019-05-09T19:10:16.027Z,3.95
2019-05-09T19:12:44.553Z,2.60
2019-05-09T19:15:27.719Z,1.65
2019-05-09T19:18:04.843Z,2.00
2019-05-09T19:20:45.870Z,1.85
2019-05-09T19:23:15.598Z,1.60
2019-05-09T19:25:43.796Z,1.87
2019-05-09T19:28:11.727Z,1.55
2019-05-09T19:30:39.518Z,1.70
2019-05-09T19:33:07.147Z,1.55
2019-05-09T19:35:34.954Z,1.52
2019-05-09T19:38:02.827Z,1.62
2019-05-09T19:40:33.082Z,2.12
2019-05-09T19:43:00.855Z,1.60
2019-05-09T19:45:28.663Z,1.60
2019-05-09T19:47:56.619Z,1.75
2019-05-09T19:50:24.499Z,1.87
2019-05-09T19:52:52.305Z,1.87
2019-05-09T19:55:20.136Z,1.87
2019-05-09T19:57:47.884Z,1.87
2019-05-09T20:00:16.514Z,1.50
2019-05-09T20:02:44.603Z,2.00
2019-05-09T20:05:12.839Z,1.52
2019-05-09T20:07:40.935Z,1.95
2019-05-09T20:10:27.307Z,1.75
2019-05-09T20:13:25.179Z,1.50
2019-05-09T20:15:54.638Z,1.50
2019-05-09T20:18:22.775Z,1.60
2019-05-09T20:20:50.853Z,1.72
2019-05-09T20:23:18.834Z,1.47
2019-05-09T20:25:46.540Z,1.50
2019-05-09T20:28:14.304Z,1.60
2019-05-09T20:30:42.214Z,1.50
2019-05-09T20:33:10.181Z,1.57
2019-05-09T20:35:37.929Z,1.37
2019-05-09T20:38:05.823Z,1.50
2019-05-09T20:40:33.645Z,1.57
2019-05-09T20:43:01.949Z,1.50
2019-05-09T20:45:29.655Z,1.57
2019-05-09T20:47:57.449Z,1.50
2019-05-09T20:50:25.198Z,1.42
2019-05-09T20:53:07.278Z,1.57
2019-05-09T20:55:22.804Z,1.40
2019-05-09T20:57:52.107Z,1.55
2019-05-09T21:00:20.304Z,1.50
2019-05-09T21:02:48.640Z,2.08
2019-05-09T21:05:16.524Z,1.40
2019-05-09T21:07:44.667Z,1.40
2019-05-09T21:10:12.727Z,1.52
2019-05-09T21:12:40.933Z,1.60
2019-05-09T21:15:09.053Z,1.50
2019-05-09T21:17:37.483Z,1.40
2019-05-09T21:20:05.709Z,1.40
2019-05-09T21:22:33.811Z,1.27
2019-05-09T21:25:01.590Z,1.60
2019-05-09T21:27:30.914Z,1.40
2019-05-09T21:29:58.727Z,1.37
2019-05-09T21:32:26.463Z,1.27
2019-05-09T21:34:54.365Z,1.75
2019-05-09T21:37:22.205Z,1.30
2019-05-09T21:39:50.214Z,1.30
2019-05-09T21:42:18.212Z,1.40
2019-05-09T21:44:46.082Z,1.30
2019-05-09T21:47:13.890Z,1.27
2019-05-09T21:49:41.656Z,1.35
2019-05-09T21:52:09.485Z,1.45
2019-05-09T21:54:37.285Z,1.65
2019-05-09T21:57:05.035Z,1.12
2019-05-09T21:59:32.812Z,1.70
2019-05-09T22:02:00.557Z,1.30
2019-05-09T22:04:28.369Z,1.32
2019-05-09T22:06:56.141Z,1.37
2019-05-09T22:09:24.119Z,1.50
2019-05-09T22:11:51.943Z,1.60
2019-05-09T22:14:19.809Z,1.40
2019-05-09T22:16:48.786Z,1.65
2019-05-09T22:19:16.475Z,1.30
2019-05-09T22:21:44.294Z,1.40
2019-05-09T22:24:11.978Z,1.40
2019-05-09T22:26:39.833Z,1.45
2019-05-09T22:29:07.555Z,1.60
2019-05-09T22:31:35.338Z,1.45
2019-05-09T22:34:03.014Z,1.57
2019-05-09T22:36:30.879Z,1.60
2019-05-09T22:38:58.560Z,1.55
2019-05-09T22:41:26.363Z,1.35
2019-05-09T22:43:54.125Z,1.70
2019-05-09T22:46:21.909Z,1.40
2019-05-09T22:48:49.663Z,1.60
2019-05-09T22:51:17.390Z,1.82
2019-05-09T22:53:45.268Z,2.00
2019-05-09T22:56:13.138Z,1.50
2019-05-09T22:58:40.989Z,1.62
2019-05-09T23:01:08.671Z,1.50
2019-05-09T23:03:36.430Z,1.60
2019-05-09T23:06:04.216Z,1.87
2019-05-09T23:08:31.990Z,1.55
2019-05-09T23:10:59.668Z,1.40
2019-05-09T23:13:27.534Z,1.60
2019-05-09T23:15:55.258Z,1.80
2019-05-09T23:18:22.975Z,1.57
2019-05-09T23:20:56.092Z,1.67
2019-05-09T23:23:36.979Z,1.90
2019-05-09T23:26:06.297Z,2.00
2019-05-09T23:28:34.082Z,1.50
2019-05-09T23:31:04.875Z,2.35
2019-05-09T23:33:37.273Z,1.77
2019-05-09T23:36:06.444Z,1.90
2019-05-09T23:38:36.363Z,1.80
2019-05-09T23:41:05.688Z,1.85
2019-05-09T23:43:33.442Z,1.60
2019-05-09T23:46:01.237Z,1.80
2019-05-09T23:48:29.015Z,2.37
2019-05-09T23:50:56.956Z,1.98
2019-05-09T23:53:31.325Z,1.95
2019-05-09T23:56:19.387Z,1.90
2019-05-09T23:59:07.136Z,2.50
